Kezdőlap
METAR-TAF:

METAR-TAF

Repülőterek :

Oelwein Municipal Airport

Oelwein, Iowa, Amerikai Egyesült Államok

földrajzi szélesség: 42-40-51N, földrajzi hosszúság: 091-58-28W, magasság: 328 m

Jelenlegi meteorológiai megfigyelések

A jelentés 19 perccel ezelõtt készült, 20:15 UTC
Észak-északnyugati szél 20 kt széllökések: 25 kt
Hőmérséklet 9°C
Páratartalom 53%
Légköri nyomás 1006 hPa
Látótávolság: 16.1 km
Kevés felhő 3900 lábon
Szakadozott felhőzet 5000 lábon
Szakadozott felhőzet 5500 lábon

METAR: KOLZ 232015Z AUTO 33020G25KT 10SM FEW039 BKN050 BKN055 09/M00 A2972 RMK A01

Idő: 14:34 (20:34 UTC)


TAF: hiányzik

Meteorológiai megfigyelések és előrejelzések több, mint 4000 repülőtéren (METAR és TAF jelentéseket).

A térképen piros és sárga pontok jelzik az elérhető meteorológiai állomásokat.

Mozgassa az egeret a pont fölött, hogy megjelenjen az állomás neve.

Azután kattintson az időjárási megfigyelések és előrejelzések megtekintéséhez.

A térkép megváltoztatása: kattintson a fekete keresztel jelölt zöld gombra ráközelítéshez, a vonallal jelölt zöld gombra távolításhoz, vagy a zöld nyilakra a szomszédos térképek eléréséhez.


METAR-TAF: